Vidalia Municipal Airport

About
Name: Vidalia Municipal Airport
Identifier:  VDI/KVDI
Local Time:  18. Aug 00:57 EDT
Location
Flights per Day
0 flights
Distance: 210km (130mi)
Punctuality
50% (0 flights per day delayed)
Delay Average: 10 minutes
Current Weather
 25 C (Humidity: 78%)
  4kt (7km/h / 4mph) from 230°
  Scattered clouds at 8,000 feet (2,438 meter)
  16km (10 mi.)
 METAR KVDI 180435Z AUTO 23004KT 10SM SCT080 25/21 A3004 RMK AO2

Current Flights

Departures
Number Departure To Airline
Arrivals
Number Arrival From Airline

Current Delays

Departures
N/A
Arrivals
N/A

Destinations

Top Destinations
Airport Flights
per week
Seats
per week
  Savannah (SAV) 2 - 0 0
  Brunswick (SSI) 0 - 0 0
  Orangeburg (OGB) 0 - 0 0
  Athens (AHN) 0 - 0 0
  Valdosta (VLD) 0 - 0 0
  Franklin (FKN) 0 - 0 0
  Fort Stewart(Hinesville) (LIY) 0 - 0 0
  Leesburg (LEE) 0 - 0 0
  Miami (OPF) 0 - 0 0
  Panama City (ECP) 0 - 0 0

Airlines & Planes

Top Airlines
Airline Flights
per Day
Seats
per Day
Nordwind Airlines 0 -
  Nolinor Aviation 0 -
Jet Charter Inc ( Franklin Lakes Nj ) 0 -
  National Airlines 0 -
Top Plane Types
Model Flights Seats
Piper PA28-181 0.3/day - 0
Beech E90 King Air 0.1/day - 0
Beech B300 Super King Air 0.1/day - 0
Beech G36 Bonanza 0.1/day - 0
Beech B300 Super King Air 350 0.1/day - 0